createdAt,value
2022-12-14T00:01:26.665Z,26.83
2022-12-14T00:03:54.546Z,26.10
2022-12-14T00:06:26.212Z,22.70
2022-12-14T00:08:55.741Z,23.03
2022-12-14T00:11:23.076Z,24.43
2022-12-14T00:13:57.205Z,24.37
2022-12-14T00:16:26.376Z,28.33
2022-12-14T00:18:55.201Z,26.27
2022-12-14T00:21:22.693Z,24.90
2022-12-14T00:23:50.728Z,24.97
2022-12-14T00:26:20.070Z,26.57
2022-12-14T00:28:48.022Z,26.40
2022-12-14T00:31:15.672Z,24.43
2022-12-14T00:33:43.181Z,26.03
2022-12-14T00:36:11.190Z,25.70
2022-12-14T00:38:39.202Z,28.50
2022-12-14T00:41:06.741Z,28.93
2022-12-14T00:43:34.265Z,27.17
2022-12-14T00:46:01.981Z,27.30
2022-12-14T00:48:29.941Z,30.17
2022-12-14T00:50:57.842Z,27.93
2022-12-14T00:53:25.633Z,28.03
2022-12-14T00:55:53.109Z,28.97
2022-12-14T00:58:22.688Z,27.60
2022-12-14T01:01:04.184Z,26.67
2022-12-14T01:03:32.247Z,27.43
2022-12-14T01:06:00.155Z,28.03
2022-12-14T01:08:35.510Z,29.43
2022-12-14T01:11:06.898Z,26.87
2022-12-14T01:13:34.275Z,28.60
2022-12-14T01:16:09.958Z,27.87
2022-12-14T01:18:38.190Z,21.35
2022-12-14T01:21:13.543Z,26.87
2022-12-14T01:23:41.377Z,28.50
2022-12-14T01:26:08.691Z,28.47
2022-12-14T01:28:36.263Z,26.43
2022-12-14T01:31:17.138Z,28.63
2022-12-14T01:33:45.215Z,28.07
2022-12-14T01:36:17.270Z,28.00
2022-12-14T01:38:44.948Z,28.27
2022-12-14T01:41:30.803Z,27.83
2022-12-14T01:43:59.808Z,25.80
2022-12-14T01:46:59.892Z,25.30
2022-12-14T01:49:30.061Z,28.63
2022-12-14T01:52:18.814Z,24.83
2022-12-14T01:55:17.593Z,25.37
2022-12-14T01:58:08.368Z,27.40
2022-12-14T02:00:35.716Z,26.67
2022-12-14T02:03:12.333Z,24.70
2022-12-14T02:05:42.206Z,24.05
2022-12-14T02:08:09.786Z,23.93
2022-12-14T02:10:37.136Z,23.70
2022-12-14T02:13:07.464Z,24.53
2022-12-14T02:15:35.139Z,24.40
2022-12-14T02:18:02.871Z,23.37
2022-12-14T02:20:35.064Z,23.43
2022-12-14T02:23:36.772Z,24.63
2022-12-14T02:26:31.084Z,24.80
2022-12-14T02:29:35.868Z,23.73
2022-12-14T02:32:18.284Z,27.53
2022-12-14T02:35:23.541Z,29.00
2022-12-14T02:38:02.885Z,19.93
2022-12-14T02:40:36.492Z,24.63
2022-12-14T02:43:16.343Z,26.70
2022-12-14T02:45:45.434Z,27.50
2022-12-14T02:48:22.261Z,27.50
2022-12-14T02:50:55.110Z,28.43
2022-12-14T02:53:25.113Z,27.17
2022-12-14T02:55:53.832Z,26.50
2022-12-14T02:58:22.924Z,28.83
2022-12-14T03:00:50.307Z,25.20
2022-12-14T03:03:17.995Z,26.70
2022-12-14T03:05:58.342Z,25.27
2022-12-14T03:08:26.482Z,28.60
2022-12-14T03:11:01.117Z,27.20
2022-12-14T03:13:40.870Z,25.43
2022-12-14T03:16:09.230Z,26.47
2022-12-14T03:18:39.248Z,26.73
2022-12-14T03:21:07.849Z,24.77
2022-12-14T03:23:35.305Z,25.00
2022-12-14T03:26:17.616Z,25.77
2022-12-14T03:29:02.997Z,24.20
2022-12-14T03:31:32.779Z,24.73
2022-12-14T03:34:00.307Z,23.97
2022-12-14T03:36:32.878Z,27.27
2022-12-14T03:39:01.783Z,25.23
2022-12-14T03:41:41.924Z,23.37
2022-12-14T03:44:25.201Z,26.40
2022-12-14T03:47:09.751Z,24.30
2022-12-14T03:50:06.702Z,22.63
2022-12-14T03:53:11.208Z,25.37
2022-12-14T03:55:41.815Z,24.10
2022-12-14T03:58:24.048Z,26.07
2022-12-14T04:01:00.220Z,27.43
2022-12-14T04:03:38.840Z,27.85
2022-12-14T04:06:07.171Z,24.87
2022-12-14T04:08:42.676Z,26.00
2022-12-14T04:11:30.243Z,25.27
2022-12-14T04:14:25.018Z,26.87
2022-12-14T04:17:10.885Z,25.23
2022-12-14T04:19:49.803Z,23.98
2022-12-14T04:22:19.530Z,25.43
2022-12-14T04:25:10.185Z,27.17
2022-12-14T04:27:40.970Z,26.60
2022-12-14T04:30:09.283Z,27.13
2022-12-14T04:32:45.552Z,24.90
2022-12-14T04:35:24.755Z,26.83
2022-12-14T04:37:55.529Z,26.97
2022-12-14T04:40:31.538Z,24.70
2022-12-14T04:43:05.142Z,27.92
2022-12-14T04:45:35.296Z,27.30
2022-12-14T04:48:11.710Z,27.67
2022-12-14T04:53:22.714Z,26.80
2022-12-14T04:56:00.639Z,25.37
2022-12-14T04:58:28.881Z,26.67
2022-12-14T05:01:25.996Z,23.63
2022-12-14T05:04:08.188Z,26.17
2022-12-14T05:06:47.027Z,28.07
2022-12-14T05:09:20.202Z,25.35
2022-12-14T05:11:54.294Z,24.57
2022-12-14T05:14:32.023Z,24.33
2022-12-14T05:17:03.428Z,24.17
2022-12-14T05:19:33.905Z,25.20
2022-12-14T05:22:06.868Z,26.20
2022-12-14T05:24:34.223Z,25.53
2022-12-14T05:27:01.835Z,24.67
2022-12-14T05:29:29.219Z,25.10
2022-12-14T05:31:56.558Z,23.73
2022-12-14T05:34:24.174Z,22.50
2022-12-14T05:36:51.546Z,22.63
2022-12-14T05:39:18.884Z,23.23
2022-12-14T05:41:46.515Z,24.27
2022-12-14T05:44:13.958Z,21.30
2022-12-14T05:46:41.421Z,20.57
2022-12-14T05:49:09.123Z,25.23
2022-12-14T05:51:36.527Z,22.43
2022-12-14T05:54:03.943Z,22.33
2022-12-14T05:56:31.591Z,21.93
2022-12-14T05:58:58.925Z,24.60
2022-12-14T06:01:26.489Z,20.93
2022-12-14T06:03:54.224Z,20.67
2022-12-14T06:06:21.677Z,23.03
2022-12-14T06:08:49.138Z,22.73
2022-12-14T06:11:21.153Z,20.80
2022-12-14T06:13:48.551Z,20.40
2022-12-14T06:16:24.368Z,20.60
2022-12-14T06:18:53.180Z,20.17
2022-12-14T06:21:22.255Z,20.20
2022-12-14T06:23:49.758Z,17.93
2022-12-14T06:26:17.387Z,20.43
2022-12-14T06:28:45.015Z,18.33
2022-12-14T06:31:16.923Z,20.60
2022-12-14T06:33:44.690Z,19.27
2022-12-14T06:36:26.762Z,19.10
2022-12-14T06:38:55.023Z,18.07
2022-12-14T06:41:22.636Z,20.03
2022-12-14T06:43:51.237Z,18.40
2022-12-14T06:46:20.855Z,19.20
2022-12-14T06:48:52.732Z,18.90
2022-12-14T06:51:21.091Z,18.47
2022-12-14T06:53:52.177Z,17.83
2022-12-14T06:56:20.295Z,21.20
2022-12-14T06:58:47.726Z,18.53
2022-12-14T07:01:20.929Z,19.63
2022-12-14T07:03:56.277Z,19.53
2022-12-14T07:06:24.203Z,17.60
2022-12-14T07:08:56.329Z,17.97
2022-12-14T07:11:23.907Z,18.70
2022-12-14T07:13:51.631Z,17.70
2022-12-14T07:16:21.005Z,19.10
2022-12-14T07:18:48.535Z,17.83
2022-12-14T07:21:16.823Z,18.40
2022-12-14T07:23:44.744Z,18.80
2022-12-14T07:26:16.672Z,18.77
2022-12-14T07:28:45.067Z,19.47
2022-12-14T07:31:19.697Z,19.30
2022-12-14T07:33:47.350Z,18.33
2022-12-14T07:36:16.731Z,17.80
2022-12-14T07:38:45.395Z,17.83
2022-12-14T07:41:22.022Z,18.80
2022-12-14T07:43:50.329Z,18.67
2022-12-14T07:46:20.088Z,18.57
2022-12-14T07:48:48.858Z,20.07
2022-12-14T07:51:17.733Z,19.50
2022-12-14T07:53:45.501Z,17.73
2022-12-14T07:56:17.260Z,18.67
2022-12-14T07:58:44.931Z,18.67
2022-12-14T08:01:20.473Z,19.27
2022-12-14T08:03:58.751Z,20.60
2022-12-14T08:06:28.124Z,20.00
2022-12-14T08:08:55.905Z,18.70
2022-12-14T08:11:26.011Z,21.07
2022-12-14T08:13:57.649Z,19.40
2022-12-14T08:16:25.525Z,19.30
2022-12-14T08:18:53.521Z,18.73
2022-12-14T08:21:22.106Z,19.70
2022-12-14T08:23:50.005Z,19.90
2022-12-14T08:26:17.822Z,20.40
2022-12-14T08:28:45.326Z,19.83
2022-12-14T08:31:17.093Z,18.97
2022-12-14T08:33:44.806Z,20.70
2022-12-14T08:36:13.511Z,20.23
2022-12-14T08:38:41.189Z,18.47
2022-12-14T08:41:12.732Z,19.20
2022-12-14T08:43:40.657Z,20.03
2022-12-14T08:46:08.935Z,20.23
2022-12-14T08:48:36.577Z,18.30
2022-12-14T08:51:05.633Z,20.13
2022-12-14T08:53:33.911Z,20.93
2022-12-14T08:56:09.054Z,20.30
2022-12-14T08:58:36.716Z,18.53
2022-12-14T09:01:05.827Z,19.07
2022-12-14T09:03:33.701Z,17.97
2022-12-14T09:06:05.260Z,18.07
2022-12-14T09:08:32.993Z,19.13
2022-12-14T09:11:00.782Z,17.97
2022-12-14T09:13:28.971Z,18.90
2022-12-14T09:16:07.668Z,19.73
2022-12-14T09:18:35.676Z,19.33
2022-12-14T09:21:03.058Z,17.93
2022-12-14T09:23:31.392Z,19.23
2022-12-14T09:26:06.305Z,20.07
2022-12-14T09:28:35.293Z,20.10
2022-12-14T09:31:07.274Z,18.67
2022-12-14T09:33:34.683Z,19.30
2022-12-14T09:36:05.819Z,18.50
2022-12-14T09:38:34.834Z,19.47
2022-12-14T09:41:07.621Z,19.27
2022-12-14T09:43:49.207Z,18.63
2022-12-14T09:46:31.931Z,17.90
2022-12-14T09:49:01.255Z,18.63
2022-12-14T09:51:36.655Z,18.73
2022-12-14T09:54:06.946Z,19.67
2022-12-14T09:56:34.571Z,18.83
2022-12-14T09:59:02.215Z,19.80
2022-12-14T10:01:37.662Z,18.17
2022-12-14T10:04:24.378Z,19.63
2022-12-14T10:09:46.602Z,18.30
2022-12-14T10:12:40.224Z,19.70
2022-12-14T10:15:23.943Z,20.23
2022-12-14T10:18:01.285Z,19.43
2022-12-14T10:20:53.717Z,17.87
2022-12-14T10:23:23.132Z,18.03
2022-12-14T10:25:55.497Z,18.97
2022-12-14T10:28:33.726Z,18.87
2022-12-14T10:31:01.336Z,19.67
2022-12-14T10:33:29.835Z,17.10
2022-12-14T10:36:12.669Z,19.10
2022-12-14T10:39:02.002Z,20.17
2022-12-14T10:41:51.338Z,18.77
2022-12-14T10:44:29.584Z,18.80
2022-12-14T10:47:00.905Z,20.23
2022-12-14T10:49:43.641Z,19.03
2022-12-14T10:52:22.826Z,18.70
2022-12-14T10:54:55.598Z,17.90
2022-12-14T10:57:26.364Z,19.10
2022-12-14T11:00:07.920Z,18.30
2022-12-14T11:02:38.894Z,18.33
2022-12-14T11:05:37.170Z,18.07
2022-12-14T11:08:07.315Z,18.13
2022-12-14T11:10:36.381Z,19.10
2022-12-14T11:13:12.908Z,17.80
2022-12-14T11:15:42.005Z,20.00
2022-12-14T11:18:12.260Z,19.93
2022-12-14T11:20:53.846Z,17.43
2022-12-14T11:23:25.872Z,17.47
2022-12-14T11:25:58.957Z,16.97
2022-12-14T11:28:37.005Z,17.13
2022-12-14T11:31:12.846Z,18.63
2022-12-14T11:33:44.802Z,16.85
2022-12-14T11:36:28.444Z,16.87
2022-12-14T11:38:59.703Z,16.30
2022-12-14T11:41:37.289Z,18.53
2022-12-14T11:44:13.928Z,18.97
2022-12-14T11:47:10.174Z,19.45
2022-12-14T11:49:37.597Z,17.87
2022-12-14T11:52:05.046Z,18.17
2022-12-14T11:54:32.977Z,17.13
2022-12-14T11:57:23.888Z,18.90
2022-12-14T11:59:58.884Z,17.67
2022-12-14T12:02:33.492Z,18.83
2022-12-14T12:05:15.754Z,17.50
2022-12-14T12:07:49.274Z,19.70
2022-12-14T12:10:36.273Z,18.03
2022-12-14T12:13:05.058Z,16.97
2022-12-14T12:15:37.948Z,17.10
2022-12-14T12:18:08.706Z,18.43
2022-12-14T12:20:43.097Z,19.23
2022-12-14T12:23:14.104Z,17.80
2022-12-14T12:25:42.039Z,17.17
2022-12-14T12:28:16.979Z,17.00
2022-12-14T12:30:47.426Z,16.23
2022-12-14T12:33:38.412Z,18.63
2022-12-14T12:36:06.339Z,17.17
2022-12-14T12:38:42.380Z,17.03
2022-12-14T12:41:20.368Z,19.10
2022-12-14T12:43:56.817Z,17.77
2022-12-14T12:49:04.204Z,19.80
2022-12-14T12:51:45.914Z,18.33
2022-12-14T12:54:25.155Z,18.43
2022-12-14T12:56:54.025Z,18.40
2022-12-14T12:59:48.429Z,18.50
2022-12-14T13:02:22.209Z,17.67
2022-12-14T13:04:52.698Z,17.00
2022-12-14T13:07:28.427Z,18.70
2022-12-14T13:10:23.097Z,18.13
2022-12-14T13:12:56.176Z,19.60
2022-12-14T13:15:26.728Z,17.93
2022-12-14T13:17:57.333Z,19.30
2022-12-14T13:20:31.068Z,19.27
2022-12-14T13:23:05.745Z,19.37
2022-12-14T13:26:23.435Z,17.93
2022-12-14T13:29:44.240Z,17.97
2022-12-14T13:32:17.531Z,17.50
2022-12-14T13:35:19.992Z,20.13
2022-12-14T13:37:54.128Z,19.90
2022-12-14T13:40:45.883Z,19.67
2022-12-14T13:43:15.342Z,18.47
2022-12-14T13:45:45.666Z,19.63
2022-12-14T13:48:29.049Z,18.40
2022-12-14T13:51:02.176Z,20.73
2022-12-14T13:53:31.896Z,20.47
2022-12-14T13:55:59.705Z,20.27
2022-12-14T13:58:44.294Z,20.53
2022-12-14T14:01:35.750Z,18.83
2022-12-14T14:04:10.339Z,18.60
2022-12-14T14:06:41.942Z,19.00
2022-12-14T14:09:40.367Z,17.43
2022-12-14T14:12:48.919Z,18.87
2022-12-14T14:16:19.001Z,18.50
2022-12-14T14:18:34.517Z,17.97
2022-12-14T14:21:14.492Z,18.27
2022-12-14T14:24:15.101Z,19.00
2022-12-14T14:26:43.601Z,18.77
2022-12-14T14:29:27.441Z,19.83
2022-12-14T14:31:59.583Z,19.13
2022-12-14T14:34:40.011Z,19.63
2022-12-14T14:37:15.316Z,19.77
2022-12-14T14:40:07.208Z,18.27
2022-12-14T14:42:33.235Z,18.83
2022-12-14T14:45:02.954Z,20.63
2022-12-14T14:47:38.102Z,20.10
2022-12-14T14:50:21.668Z,17.73
2022-12-14T14:53:20.380Z,19.33
2022-12-14T14:56:13.262Z,18.80
2022-12-14T14:58:42.064Z,19.47
2022-12-14T15:01:16.020Z,19.40
2022-12-14T15:04:08.328Z,20.37
2022-12-14T15:06:40.193Z,17.33
2022-12-14T15:09:13.830Z,20.03
2022-12-14T15:11:48.959Z,21.47
2022-12-14T15:14:36.491Z,20.47
2022-12-14T15:17:19.219Z,20.57
2022-12-14T15:19:54.037Z,19.43
2022-12-14T15:22:32.804Z,21.50
2022-12-14T15:25:00.730Z,20.00
2022-12-14T15:27:30.174Z,19.47
2022-12-14T15:30:11.655Z,21.17
2022-12-14T15:32:45.796Z,19.00
2022-12-14T15:35:17.125Z,19.43
2022-12-14T15:38:06.267Z,19.00
2022-12-14T15:40:34.716Z,18.83
2022-12-14T15:43:23.579Z,18.97
2022-12-14T15:45:55.493Z,20.20
2022-12-14T15:48:28.029Z,19.97
2022-12-14T15:51:10.667Z,19.30
2022-12-14T15:53:43.672Z,20.33
2022-12-14T15:56:23.941Z,19.30
2022-12-14T15:58:52.090Z,19.63
2022-12-14T16:01:32.577Z,20.33
2022-12-14T16:04:05.183Z,20.07
2022-12-14T16:06:33.726Z,18.67
2022-12-14T16:09:05.867Z,18.40
2022-12-14T16:11:39.559Z,19.23
2022-12-14T16:14:26.292Z,19.83
2022-12-14T16:19:28.156Z,20.27
2022-12-14T16:22:22.213Z,18.30
2022-12-14T16:25:08.213Z,18.40
2022-12-14T16:27:43.062Z,18.37
2022-12-14T16:30:31.083Z,18.93
2022-12-14T16:33:19.003Z,18.90
2022-12-14T16:35:47.658Z,21.73
2022-12-14T16:38:16.160Z,19.70
2022-12-14T16:40:54.585Z,19.00
2022-12-14T16:43:33.958Z,19.07
2022-12-14T16:46:04.792Z,18.83
2022-12-14T16:48:33.129Z,18.90
2022-12-14T16:51:28.608Z,21.10
2022-12-14T16:54:12.435Z,19.65
2022-12-14T16:56:45.022Z,20.47
2022-12-14T16:59:49.362Z,20.23
2022-12-14T17:02:36.418Z,20.30
2022-12-14T17:05:15.919Z,18.97
2022-12-14T17:07:43.280Z,20.20
2022-12-14T17:10:31.080Z,19.50
2022-12-14T17:12:59.169Z,21.43
2022-12-14T17:15:28.079Z,21.63
2022-12-14T17:17:55.936Z,22.17
2022-12-14T17:20:30.593Z,21.30
2022-12-14T17:22:59.246Z,19.57
2022-12-14T17:25:27.309Z,22.53
2022-12-14T17:27:54.741Z,22.53
2022-12-14T17:30:23.006Z,21.37
2022-12-14T17:32:51.121Z,23.37
2022-12-14T17:35:22.991Z,21.13
2022-12-14T17:37:50.754Z,22.70
2022-12-14T17:40:18.256Z,21.30
2022-12-14T17:42:49.476Z,24.30
2022-12-14T17:45:27.762Z,22.50
2022-12-14T17:47:55.263Z,24.40
2022-12-14T17:50:22.957Z,22.63
2022-12-14T17:52:50.462Z,19.77
2022-12-14T17:55:19.499Z,21.33
2022-12-14T17:57:47.202Z,20.60
2022-12-14T18:00:38.146Z,19.80
2022-12-14T18:03:05.947Z,19.87
2022-12-14T18:05:33.563Z,21.70
2022-12-14T18:08:00.927Z,20.50
2022-12-14T18:10:28.891Z,20.23
2022-12-14T18:12:56.268Z,20.17
2022-12-14T18:15:43.255Z,20.57
2022-12-14T18:18:10.869Z,19.57
2022-12-14T18:20:41.378Z,20.63
2022-12-14T18:23:15.462Z,20.70
2022-12-14T18:25:44.626Z,20.60
2022-12-14T18:28:15.378Z,22.07
2022-12-14T18:30:49.382Z,21.93
2022-12-14T18:33:19.004Z,21.40
2022-12-14T18:35:46.931Z,21.03
2022-12-14T18:38:14.382Z,20.87
2022-12-14T18:40:43.277Z,21.50
2022-12-14T18:43:19.312Z,20.57
2022-12-14T18:45:46.631Z,20.83
2022-12-14T18:48:14.028Z,22.43
2022-12-14T18:50:43.179Z,21.50
2022-12-14T18:53:15.009Z,21.20
2022-12-14T18:55:42.706Z,20.70
2022-12-14T18:58:20.286Z,21.30
2022-12-14T19:00:48.543Z,21.63
2022-12-14T19:03:16.001Z,18.87
2022-12-14T19:05:44.103Z,19.53
2022-12-14T19:08:11.862Z,18.83
2022-12-14T19:10:40.954Z,19.53
2022-12-14T19:13:25.317Z,21.13
2022-12-14T19:15:54.327Z,21.10
2022-12-14T19:18:21.805Z,19.33
2022-12-14T19:20:49.660Z,19.40
2022-12-14T19:23:18.243Z,20.67
2022-12-14T19:25:46.266Z,21.07
2022-12-14T19:28:32.097Z,20.00
2022-12-14T19:31:00.879Z,19.80
2022-12-14T19:33:30.934Z,19.93
2022-12-14T19:35:58.642Z,19.37
2022-12-14T19:38:26.336Z,20.43
2022-12-14T19:41:06.893Z,19.53
2022-12-14T19:43:35.233Z,21.93
2022-12-14T19:46:10.346Z,19.80
2022-12-14T19:48:38.203Z,21.00
2022-12-14T19:51:10.691Z,21.83
2022-12-14T19:53:39.194Z,19.07
2022-12-14T19:56:06.785Z,20.13
2022-12-14T19:58:34.126Z,19.27
2022-12-14T20:01:01.909Z,22.03
2022-12-14T20:03:30.016Z,21.40
2022-12-14T20:05:58.810Z,20.57
2022-12-14T20:08:30.075Z,20.40
2022-12-14T20:10:57.699Z,19.27
2022-12-14T20:13:26.012Z,21.77
2022-12-14T20:15:58.321Z,22.33
2022-12-14T20:18:26.719Z,22.13
2022-12-14T20:21:00.009Z,20.67
2022-12-14T20:23:27.875Z,18.73
2022-12-14T20:25:59.931Z,22.13
2022-12-14T20:28:27.559Z,20.20
2022-12-14T20:30:54.929Z,20.27
2022-12-14T20:33:28.055Z,19.77
2022-12-14T20:35:57.983Z,21.07
2022-12-14T20:38:25.547Z,21.37
2022-12-14T20:40:52.978Z,20.03
2022-12-14T20:43:20.608Z,21.93
2022-12-14T20:45:48.044Z,19.50
2022-12-14T20:48:15.349Z,19.43
2022-12-14T20:50:43.113Z,21.07
2022-12-14T20:53:10.456Z,20.37
2022-12-14T20:55:37.783Z,19.87
2022-12-14T20:58:05.396Z,20.47
2022-12-14T21:00:32.986Z,20.63
2022-12-14T21:03:00.505Z,21.50
2022-12-14T21:05:28.281Z,19.90
2022-12-14T21:07:55.608Z,20.80
2022-12-14T21:10:22.938Z,20.70
2022-12-14T21:12:50.588Z,19.13
2022-12-14T21:15:17.934Z,21.70
2022-12-14T21:17:45.296Z,20.20
2022-12-14T21:20:12.905Z,18.70
2022-12-14T21:22:40.395Z,19.80
2022-12-14T21:25:08.097Z,19.70
2022-12-14T21:27:38.266Z,20.10
2022-12-14T21:30:07.631Z,19.83
2022-12-14T21:32:35.935Z,20.13
2022-12-14T21:35:03.810Z,18.90
2022-12-14T21:37:31.291Z,20.73
2022-12-14T21:39:58.625Z,20.63
2022-12-14T21:42:26.533Z,20.23
2022-12-14T21:44:55.324Z,20.73
2022-12-14T21:47:24.984Z,20.53
2022-12-14T21:49:52.667Z,20.10
2022-12-14T21:52:21.635Z,23.80
2022-12-14T21:54:49.139Z,19.43
2022-12-14T21:57:38.429Z,21.07
2022-12-14T22:00:06.719Z,20.07
2022-12-14T22:02:39.610Z,18.33
2022-12-14T22:05:07.676Z,19.40
2022-12-14T22:07:34.998Z,18.90
2022-12-14T22:10:02.329Z,20.37
2022-12-14T22:12:30.049Z,21.83
2022-12-14T22:14:57.397Z,20.50
2022-12-14T22:17:24.742Z,22.47
2022-12-14T22:19:54.297Z,19.77
2022-12-14T22:22:21.677Z,22.47
2022-12-14T22:24:49.863Z,20.07
2022-12-14T22:27:17.667Z,19.03
2022-12-14T22:29:45.164Z,20.17
2022-12-14T22:32:12.625Z,21.17
2022-12-14T22:34:40.321Z,19.83
2022-12-14T22:37:07.806Z,23.43
2022-12-14T22:39:35.151Z,20.23
2022-12-14T22:42:02.779Z,21.57
2022-12-14T22:44:30.137Z,21.57
2022-12-14T22:46:57.792Z,22.57
2022-12-14T22:49:25.428Z,21.63
2022-12-14T22:51:52.767Z,20.40
2022-12-14T22:54:22.637Z,19.50
2022-12-14T22:56:56.983Z,19.83
2022-12-14T22:59:36.406Z,20.60
2022-12-14T23:02:04.285Z,20.23
2022-12-14T23:04:31.853Z,20.73
2022-12-14T23:06:59.254Z,21.27
2022-12-14T23:09:45.485Z,20.50
2022-12-14T23:12:31.309Z,20.45
2022-12-14T23:15:17.782Z,20.12
2022-12-14T23:18:03.742Z,20.67
2022-12-14T23:20:50.135Z,23.15
2022-12-14T23:23:36.147Z,19.98
2022-12-14T23:26:22.532Z,21.20
2022-12-14T23:29:08.370Z,23.67
2022-12-14T23:31:54.980Z,21.25
2022-12-14T23:34:41.023Z,20.40
2022-12-14T23:37:27.509Z,22.25
2022-12-14T23:40:13.429Z,20.95
2022-12-14T23:42:59.960Z,19.77
2022-12-14T23:45:45.872Z,21.35
2022-12-14T23:48:32.213Z,20.15
2022-12-14T23:51:18.993Z,20.60
2022-12-14T23:54:05.503Z,23.90
2022-12-14T23:56:51.546Z,21.92
2022-12-14T23:59:38.046Z,20.90
